sensor_id;sensor_type;location;lat;lon;timestamp;pressure;altitude;pressure_sealevel;temperature;humidity
75668;BME280;64266;48.798;44.756;2023-03-23T00:05:07;101667.56;;;11.06;50.56
75668;BME280;64266;48.798;44.756;2023-03-23T00:10:09;101702.56;;;11.29;50.46
75668;BME280;64266;48.798;44.756;2023-03-23T00:15:11;101681.00;;;11.05;51.44
75668;BME280;64266;48.798;44.756;2023-03-23T00:20:14;101705.78;;;11.18;52.31
75668;BME280;64266;48.798;44.756;2023-03-23T00:25:16;101665.63;;;10.87;51.71
75668;BME280;64266;48.798;44.756;2023-03-23T00:30:17;101705.19;;;11.16;51.88
75668;BME280;64266;48.798;44.756;2023-03-23T00:35:19;101692.28;;;11.07;51.88
75668;BME280;64266;48.798;44.756;2023-03-23T00:40:21;101709.03;;;11.07;52.51
75668;BME280;64266;48.798;44.756;2023-03-23T00:45:23;101701.81;;;10.95;52.71
75668;BME280;64266;48.798;44.756;2023-03-23T00:50:25;101679.25;;;10.77;53.70
75668;BME280;64266;48.798;44.756;2023-03-23T00:55:28;101684.56;;;10.77;52.94
75668;BME280;64266;48.798;44.756;2023-03-23T01:00:31;101695.66;;;10.87;53.67
75668;BME280;64266;48.798;44.756;2023-03-23T01:05:36;101659.50;;;10.52;53.58
75668;BME280;64266;48.798;44.756;2023-03-23T01:10:37;101703.78;;;10.86;54.42
75668;BME280;64266;48.798;44.756;2023-03-23T01:15:39;101695.34;;;10.69;53.39
75668;BME280;64266;48.798;44.756;2023-03-23T01:20:41;101699.19;;;10.67;53.64
75668;BME280;64266;48.798;44.756;2023-03-23T01:25:43;101677.22;;;10.45;54.06
75668;BME280;64266;48.798;44.756;2023-03-23T01:30:46;101703.94;;;10.44;54.39
75668;BME280;64266;48.798;44.756;2023-03-23T01:35:49;101714.88;;;10.34;53.73
75668;BME280;64266;48.798;44.756;2023-03-23T01:40:52;101708.38;;;10.15;54.70
75668;BME280;64266;48.798;44.756;2023-03-23T01:45:55;101699.03;;;9.98;54.87
75668;BME280;64266;48.798;44.756;2023-03-23T01:51:02;101729.03;;;10.20;54.57
75668;BME280;64266;48.798;44.756;2023-03-23T01:56:10;101730.53;;;10.08;54.58
75668;BME280;64266;48.798;44.756;2023-03-23T02:01:15;101744.34;;;10.03;54.73
75668;BME280;64266;48.798;44.756;2023-03-23T02:06:18;101751.50;;;10.03;54.65
75668;BME280;64266;48.798;44.756;2023-03-23T02:11:40;101749.63;;;10.03;54.79
75668;BME280;64266;48.798;44.756;2023-03-23T02:17:06;101741.81;;;9.95;54.50
75668;BME280;64266;48.798;44.756;2023-03-23T02:33:14;101755.53;;;10.20;54.86
75668;BME280;64266;48.798;44.756;2023-03-23T02:38:27;101745.81;;;10.27;54.28
75668;BME280;64266;48.798;44.756;2023-03-23T02:43:36;101754.91;;;10.39;53.69
75668;BME280;64266;48.798;44.756;2023-03-23T02:48:41;101755.97;;;10.45;53.97
75668;BME280;64266;48.798;44.756;2023-03-23T02:53:44;101738.50;;;10.29;53.73
75668;BME280;64266;48.798;44.756;2023-03-23T02:58:46;101745.22;;;10.10;54.66
75668;BME280;64266;48.798;44.756;2023-03-23T03:03:49;101755.97;;;10.23;54.99
75668;BME280;64266;48.798;44.756;2023-03-23T03:08:55;101759.91;;;10.13;55.11
75668;BME280;64266;48.798;44.756;2023-03-23T03:14:05;101779.41;;;10.20;55.69
75668;BME280;64266;48.798;44.756;2023-03-23T03:19:24;101755.97;;;10.23;54.82
75668;BME280;64266;48.798;44.756;2023-03-23T03:24:29;101777.44;;;10.28;54.48
75668;BME280;64266;48.798;44.756;2023-03-23T03:29:37;101783.63;;;10.36;55.35
75668;BME280;64266;48.798;44.756;2023-03-23T03:34:43;101771.25;;;10.21;55.45
75668;BME280;64266;48.798;44.756;2023-03-23T03:39:45;101792.97;;;10.31;55.37
75668;BME280;64266;48.798;44.756;2023-03-23T03:44:47;101781.84;;;10.21;55.13
75668;BME280;64266;48.798;44.756;2023-03-23T03:49:48;101801.53;;;10.55;55.39
75668;BME280;64266;48.798;44.756;2023-03-23T03:54:50;101776.03;;;10.54;54.85
75668;BME280;64266;48.798;44.756;2023-03-23T03:59:52;101772.00;;;10.64;54.59
75668;BME280;64266;48.798;44.756;2023-03-23T04:05:13;101804.22;;;10.89;54.34
75668;BME280;64266;48.798;44.756;2023-03-23T04:10:18;101816.94;;;10.94;53.77
75668;BME280;64266;48.798;44.756;2023-03-23T04:15:28;101813.00;;;10.89;54.36
75668;BME280;64266;48.798;44.756;2023-03-23T04:20:30;101814.84;;;10.89;54.44
75668;BME280;64266;48.798;44.756;2023-03-23T04:25:31;101794.66;;;10.88;54.18
75668;BME280;64266;48.798;44.756;2023-03-23T04:30:34;101814.09;;;11.29;53.78
75668;BME280;64266;48.798;44.756;2023-03-23T04:35:41;101810.13;;;11.53;53.19
75668;BME280;64266;48.798;44.756;2023-03-23T04:40:50;101814.34;;;11.82;52.87
75668;BME280;64266;48.798;44.756;2023-03-23T04:46:13;101814.44;;;12.08;52.04
75668;BME280;64266;48.798;44.756;2023-03-23T04:51:22;101808.53;;;12.26;51.89
75668;BME280;64266;48.798;44.756;2023-03-23T04:56:26;101797.72;;;12.27;50.68
75668;BME280;64266;48.798;44.756;2023-03-23T05:01:31;101810.59;;;12.43;51.15
75668;BME280;64266;48.798;44.756;2023-03-23T05:06:46;101805.28;;;12.57;51.34
75668;BME280;64266;48.798;44.756;2023-03-23T05:11:56;101806.50;;;12.93;50.22
75668;BME280;64266;48.798;44.756;2023-03-23T05:17:02;101820.72;;;13.58;48.77
75668;BME280;64266;48.798;44.756;2023-03-23T05:22:05;101827.16;;;13.82;47.90
75668;BME280;64266;48.798;44.756;2023-03-23T05:27:18;101812.88;;;14.70;46.58
75668;BME280;64266;48.798;44.756;2023-03-23T05:32:27;101757.94;;;15.17;44.21
75668;BME280;64266;48.798;44.756;2023-03-23T05:37:43;101803.34;;;16.31;42.18
75668;BME280;64266;48.798;44.756;2023-03-23T05:42:47;101818.81;;;17.05;41.27
75668;BME280;64266;48.798;44.756;2023-03-23T05:47:55;101828.06;;;17.72;40.26
75668;BME280;64266;48.798;44.756;2023-03-23T05:53:03;101815.50;;;18.18;39.03
75668;BME280;64266;48.798;44.756;2023-03-23T05:58:08;101815.75;;;18.16;38.47
75668;BME280;64266;48.798;44.756;2023-03-23T06:03:12;101807.94;;;18.15;38.25
75668;BME280;64266;48.798;44.756;2023-03-23T06:08:23;101823.66;;;18.23;38.92
75668;BME280;64266;48.798;44.756;2023-03-23T06:13:25;101806.78;;;18.27;38.57
75668;BME280;64266;48.798;44.756;2023-03-23T06:18:30;101804.19;;;17.87;38.66
75668;BME280;64266;48.798;44.756;2023-03-23T06:23:44;101820.00;;;17.84;39.11
75668;BME280;64266;48.798;44.756;2023-03-23T06:28:48;101818.28;;;17.66;39.85
75668;BME280;64266;48.798;44.756;2023-03-23T06:33:51;101827.06;;;17.62;40.08
75668;BME280;64266;48.798;44.756;2023-03-23T06:38:59;101801.19;;;17.84;39.17
75668;BME280;64266;48.798;44.756;2023-03-23T06:44:15;101816.97;;;18.09;38.69
75668;BME280;64266;48.798;44.756;2023-03-23T06:49:18;101828.63;;;18.03;38.19
75668;BME280;64266;48.798;44.756;2023-03-23T06:54:30;101823.88;;;18.21;37.49
75668;BME280;64266;48.798;44.756;2023-03-23T06:59:35;101819.16;;;18.12;37.13
75668;BME280;64266;48.798;44.756;2023-03-23T07:04:38;101793.38;;;17.82;36.75
75668;BME280;64266;48.798;44.756;2023-03-23T07:09:45;101802.66;;;17.63;37.21
75668;BME280;64266;48.798;44.756;2023-03-23T07:14:49;101820.59;;;17.74;37.93
75668;BME280;64266;48.798;44.756;2023-03-23T07:19:52;101808.16;;;17.45;38.89
75668;BME280;64266;48.798;44.756;2023-03-23T07:24:56;101820.28;;;17.48;40.64
75668;BME280;64266;48.798;44.756;2023-03-23T07:30:05;101818.75;;;17.63;40.69
75668;BME280;64266;48.798;44.756;2023-03-23T07:35:10;101811.13;;;17.72;40.32
75668;BME280;64266;48.798;44.756;2023-03-23T07:40:28;101812.56;;;17.74;40.14
75668;BME280;64266;48.798;44.756;2023-03-23T07:45:36;101823.47;;;17.84;40.36
75668;BME280;64266;48.798;44.756;2023-03-23T07:50:38;101814.41;;;17.74;39.80
75668;BME280;64266;48.798;44.756;2023-03-23T07:55:44;101779.13;;;17.42;40.27
75668;BME280;64266;48.798;44.756;2023-03-23T08:01:12;101810.63;;;17.58;40.36
75668;BME280;64266;48.798;44.756;2023-03-23T08:06:21;101816.97;;;17.69;40.81
75668;BME280;64266;48.798;44.756;2023-03-23T08:11:48;101780.97;;;17.65;40.57
75668;BME280;64266;48.798;44.756;2023-03-23T08:17:10;101807.53;;;17.78;41.01
75668;BME280;64266;48.798;44.756;2023-03-23T08:22:24;101788.19;;;17.64;41.07
75668;BME280;64266;48.798;44.756;2023-03-23T08:27:46;101792.81;;;17.80;40.83
75668;BME280;64266;48.798;44.756;2023-03-23T08:32:57;101805.97;;;17.82;40.43
75668;BME280;64266;48.798;44.756;2023-03-23T08:38:20;101791.09;;;17.74;40.30
75668;BME280;64266;48.798;44.756;2023-03-23T08:43:44;101795.66;;;17.91;39.57
75668;BME280;64266;48.798;44.756;2023-03-23T08:48:53;101764.69;;;17.83;38.48
75668;BME280;64266;48.798;44.756;2023-03-23T08:54:14;101779.97;;;17.82;38.45
75668;BME280;64266;48.798;44.756;2023-03-23T08:59:53;101772.19;;;17.98;38.38
75668;BME280;64266;48.798;44.756;2023-03-23T09:05:10;101767.50;;;18.05;38.24
75668;BME280;64266;48.798;44.756;2023-03-23T09:10:38;101753.47;;;18.03;38.44
75668;BME280;64266;48.798;44.756;2023-03-23T09:15:45;101737.69;;;18.06;39.01
75668;BME280;64266;48.798;44.756;2023-03-23T09:20:53;101745.72;;;18.18;38.14
75668;BME280;64266;48.798;44.756;2023-03-23T09:25:55;101719.81;;;17.95;38.20
75668;BME280;64266;48.798;44.756;2023-03-23T09:30:57;101750.88;;;18.24;37.72
75668;BME280;64266;48.798;44.756;2023-03-23T09:36:01;101715.75;;;18.09;37.60
75668;BME280;64266;48.798;44.756;2023-03-23T09:52:04;101735.44;;;18.48;36.27
75668;BME280;64266;48.798;44.756;2023-03-23T09:57:20;101725.63;;;18.54;36.29
75668;BME280;64266;48.798;44.756;2023-03-23T10:02:35;101715.44;;;18.39;36.42
75668;BME280;64266;48.798;44.756;2023-03-23T10:07:40;101678.38;;;18.24;36.70
75668;BME280;64266;48.798;44.756;2023-03-23T10:24:10;101725.94;;;18.24;37.43
75668;BME280;64266;48.798;44.756;2023-03-23T10:29:24;101719.16;;;18.05;37.98
75668;BME280;64266;48.798;44.756;2023-03-23T10:34:54;101717.59;;;17.92;38.15
75668;BME280;64266;48.798;44.756;2023-03-23T10:40:00;101715.00;;;17.80;37.69
75668;BME280;64266;48.798;44.756;2023-03-23T10:50:22;101705.78;;;17.76;37.17
75668;BME280;64266;48.798;44.756;2023-03-23T10:55:39;101686.19;;;17.59;37.35
75668;BME280;64266;48.798;44.756;2023-03-23T11:00:44;101669.88;;;17.49;37.81
75668;BME280;64266;48.798;44.756;2023-03-23T11:05:57;101694.88;;;17.66;37.94
75668;BME280;64266;48.798;44.756;2023-03-23T11:11:19;101694.09;;;17.82;38.01
75668;BME280;64266;48.798;44.756;2023-03-23T11:16:24;101696.84;;;17.71;37.99
75668;BME280;64266;48.798;44.756;2023-03-23T11:21:27;101691.91;;;17.79;38.18
75668;BME280;64266;48.798;44.756;2023-03-23T11:26:32;101690.38;;;17.83;37.71
75668;BME280;64266;48.798;44.756;2023-03-23T11:42:19;101669.53;;;17.91;36.70
75668;BME280;64266;48.798;44.756;2023-03-23T11:47:30;101675.41;;;18.04;37.47
75668;BME280;64266;48.798;44.756;2023-03-23T11:58:09;101673.88;;;18.08;36.52
75668;BME280;64266;48.798;44.756;2023-03-23T12:03:40;101632.72;;;17.86;37.11
75668;BME280;64266;48.798;44.756;2023-03-23T12:14:26;101682.41;;;18.05;36.68
75668;BME280;64266;48.798;44.756;2023-03-23T12:19:48;101661.59;;;17.96;37.21
75668;BME280;64266;48.798;44.756;2023-03-23T12:41:28;101643.13;;;17.54;38.12
75668;BME280;64266;48.798;44.756;2023-03-23T12:52:27;101648.41;;;17.49;38.52
75668;BME280;64266;48.798;44.756;2023-03-23T12:57:56;101665.47;;;17.43;39.11
75668;BME280;64266;48.798;44.756;2023-03-23T13:08:19;101654.16;;;17.13;39.04
75668;BME280;64266;48.798;44.756;2023-03-23T13:13:24;101640.72;;;16.85;40.12
75668;BME280;64266;48.798;44.756;2023-03-23T13:23:46;101599.78;;;16.38;41.11
75668;BME280;64266;48.798;44.756;2023-03-23T13:34:16;101668.38;;;16.62;40.90
75668;BME280;64266;48.798;44.756;2023-03-23T13:39:25;101656.59;;;16.63;41.19
75668;BME280;64266;48.798;44.756;2023-03-23T13:49:50;101657.31;;;16.58;40.91
75668;BME280;64266;48.798;44.756;2023-03-23T14:05:37;101656.13;;;16.43;41.57
75668;BME280;64266;48.798;44.756;2023-03-23T14:10:55;101635.88;;;16.23;41.75
75668;BME280;64266;48.798;44.756;2023-03-23T14:16:13;101638.22;;;16.20;41.81
75668;BME280;64266;48.798;44.756;2023-03-23T14:21:22;101636.94;;;16.11;42.36
75668;BME280;64266;48.798;44.756;2023-03-23T14:26:24;101632.50;;;16.05;42.14
75668;BME280;64266;48.798;44.756;2023-03-23T14:31:27;101637.16;;;15.98;42.07
75668;BME280;64266;48.798;44.756;2023-03-23T14:36:31;101637.84;;;15.93;42.38
75668;BME280;64266;48.798;44.756;2023-03-23T14:41:34;101651.91;;;16.00;42.36
75668;BME280;64266;48.798;44.756;2023-03-23T14:46:36;101655.41;;;15.89;42.84
75668;BME280;64266;48.798;44.756;2023-03-23T14:51:47;101653.75;;;15.77;42.64
75668;BME280;64266;48.798;44.756;2023-03-23T14:56:48;101641.94;;;15.54;43.41
75668;BME280;64266;48.798;44.756;2023-03-23T15:01:50;101643.00;;;15.53;43.71
75668;BME280;64266;48.798;44.756;2023-03-23T15:06:58;101651.25;;;15.52;43.54
75668;BME280;64266;48.798;44.756;2023-03-23T15:12:03;101647.44;;;15.41;44.73
75668;BME280;64266;48.798;44.756;2023-03-23T15:17:16;101660.31;;;15.33;44.85
75668;BME280;64266;48.798;44.756;2023-03-23T15:22:30;101660.72;;;15.18;45.64
75668;BME280;64266;48.798;44.756;2023-03-23T15:27:38;101629.00;;;14.92;46.50
75668;BME280;64266;48.798;44.756;2023-03-23T15:32:44;101668.06;;;15.04;46.71
75668;BME280;64266;48.798;44.756;2023-03-23T15:37:49;101657.19;;;14.88;46.83
75668;BME280;64266;48.798;44.756;2023-03-23T15:48:12;101664.09;;;14.59;47.49
75668;BME280;64266;48.798;44.756;2023-03-23T15:58:29;101665.47;;;14.43;47.53
75668;BME280;64266;48.798;44.756;2023-03-23T16:03:58;101663.91;;;14.36;47.75
75668;BME280;64266;48.798;44.756;2023-03-23T16:09:04;101649.25;;;14.20;48.81
75668;BME280;64266;48.798;44.756;2023-03-23T16:14:07;101637.91;;;14.00;48.42
75668;BME280;64266;48.798;44.756;2023-03-23T16:19:12;101628.78;;;13.89;48.76
75668;BME280;64266;48.798;44.756;2023-03-23T16:24:14;101650.31;;;13.88;48.99
75668;BME280;64266;48.798;44.756;2023-03-23T16:29:17;101653.84;;;13.82;49.20
75668;BME280;64266;48.798;44.756;2023-03-23T16:34:39;101673.50;;;13.87;49.79
75668;BME280;64266;48.798;44.756;2023-03-23T16:39:42;101646.03;;;13.62;49.82
75668;BME280;64266;48.798;44.756;2023-03-23T16:44:44;101661.91;;;13.75;49.97
75668;BME280;64266;48.798;44.756;2023-03-23T16:49:47;101664.25;;;13.65;50.10
75668;BME280;64266;48.798;44.756;2023-03-23T16:54:50;101667.78;;;13.59;50.39
75668;BME280;64266;48.798;44.756;2023-03-23T16:59:52;101681.31;;;13.57;49.97
75668;BME280;64266;48.798;44.756;2023-03-23T17:04:55;101678.47;;;13.52;50.62
75668;BME280;64266;48.798;44.756;2023-03-23T17:09:57;101674.03;;;13.40;50.66
75668;BME280;64266;48.798;44.756;2023-03-23T17:15:01;101656.69;;;13.24;50.82
75668;BME280;64266;48.798;44.756;2023-03-23T17:20:05;101668.13;;;13.31;50.69
75668;BME280;64266;48.798;44.756;2023-03-23T17:25:09;101651.41;;;13.04;50.72
75668;BME280;64266;48.798;44.756;2023-03-23T17:30:12;101691.34;;;13.18;50.83
75668;BME280;64266;48.798;44.756;2023-03-23T17:35:15;101671.31;;;13.09;51.39
75668;BME280;64266;48.798;44.756;2023-03-23T17:40:17;101662.91;;;12.98;51.35
75668;BME280;64266;48.798;44.756;2023-03-23T17:45:20;101682.38;;;12.99;51.11
75668;BME280;64266;48.798;44.756;2023-03-23T17:50:22;101656.03;;;12.78;51.16
75668;BME280;64266;48.798;44.756;2023-03-23T17:55:25;101670.97;;;12.79;51.51
75668;BME280;64266;48.798;44.756;2023-03-23T18:00:28;101659.94;;;12.69;51.50
75668;BME280;64266;48.798;44.756;2023-03-23T18:05:31;101647.69;;;12.61;51.74
75668;BME280;64266;48.798;44.756;2023-03-23T18:10:35;101678.75;;;12.80;51.52
75668;BME280;64266;48.798;44.756;2023-03-23T18:15:42;101630.94;;;12.47;51.54
75668;BME280;64266;48.798;44.756;2023-03-23T18:20:59;101603.75;;;12.32;51.48
75668;BME280;64266;48.798;44.756;2023-03-23T18:26:04;101653.59;;;12.70;51.38
75668;BME280;64266;48.798;44.756;2023-03-23T18:31:10;101658.25;;;12.81;51.30
75668;BME280;64266;48.798;44.756;2023-03-23T18:36:16;101671.16;;;12.84;51.14
75668;BME280;64266;48.798;44.756;2023-03-23T18:41:20;101663.16;;;12.84;50.96
75668;BME280;64266;48.798;44.756;2023-03-23T18:46:22;101667.72;;;12.70;51.26
75668;BME280;64266;48.798;44.756;2023-03-23T18:51:25;101658.28;;;12.68;51.08
75668;BME280;64266;48.798;44.756;2023-03-23T18:56:27;101648.50;;;12.62;51.26
75668;BME280;64266;48.798;44.756;2023-03-23T19:01:30;101656.69;;;12.60;51.39
75668;BME280;64266;48.798;44.756;2023-03-23T19:06:33;101613.56;;;12.25;51.74
75668;BME280;64266;48.798;44.756;2023-03-23T19:11:36;101647.53;;;12.36;50.73
75668;BME280;64266;48.798;44.756;2023-03-23T19:16:39;101609.50;;;12.03;51.10
75668;BME280;64266;48.798;44.756;2023-03-23T19:21:44;101650.22;;;12.23;51.44
75668;BME280;64266;48.798;44.756;2023-03-23T19:26:48;101653.06;;;12.15;52.99
75668;BME280;64266;48.798;44.756;2023-03-23T19:31:51;101656.16;;;12.06;52.13
75668;BME280;64266;48.798;44.756;2023-03-23T19:36:54;101631.41;;;11.85;52.58
75668;BME280;64266;48.798;44.756;2023-03-23T19:42:07;101637.94;;;11.89;52.46
75668;BME280;64266;48.798;44.756;2023-03-23T19:47:09;101633.63;;;11.75;52.53
75668;BME280;64266;48.798;44.756;2023-03-23T19:52:12;101591.69;;;11.44;52.99
75668;BME280;64266;48.798;44.756;2023-03-23T19:57:18;101651.59;;;11.67;53.06
75668;BME280;64266;48.798;44.756;2023-03-23T20:02:22;101647.28;;;11.59;53.51
75668;BME280;64266;48.798;44.756;2023-03-23T20:07:24;101647.28;;;11.59;53.91
75668;BME280;64266;48.798;44.756;2023-03-23T20:12:27;101654.63;;;11.57;53.05
75668;BME280;64266;48.798;44.756;2023-03-23T20:17:30;101629.06;;;11.36;53.80
75668;BME280;64266;48.798;44.756;2023-03-23T20:22:35;101652.56;;;11.39;53.55
75668;BME280;64266;48.798;44.756;2023-03-23T20:27:38;101649.91;;;11.39;53.05
75668;BME280;64266;48.798;44.756;2023-03-23T20:32:41;101648.25;;;11.38;53.55
75668;BME280;64266;48.798;44.756;2023-03-23T20:37:48;101655.63;;;11.43;53.54
75668;BME280;64266;48.798;44.756;2023-03-23T20:42:52;101644.75;;;11.25;53.58
75668;BME280;64266;48.798;44.756;2023-03-23T20:47:55;101621.81;;;11.11;53.91
75668;BME280;64266;48.798;44.756;2023-03-23T20:52:58;101630.81;;;11.10;53.85
75668;BME280;64266;48.798;44.756;2023-03-23T20:58:01;101648.38;;;11.11;54.54
75668;BME280;64266;48.798;44.756;2023-03-23T21:03:04;101636.09;;;11.03;54.75
75668;BME280;64266;48.798;44.756;2023-03-23T21:08:08;101617.22;;;10.78;54.68
75668;BME280;64266;48.798;44.756;2023-03-23T21:13:13;101628.25;;;10.82;54.62
75668;BME280;64266;48.798;44.756;2023-03-23T21:18:16;101642.53;;;10.81;54.54
75668;BME280;64266;48.798;44.756;2023-03-23T21:23:19;101643.28;;;10.68;55.08
75668;BME280;64266;48.798;44.756;2023-03-23T21:28:23;101637.16;;;10.68;54.88
75668;BME280;64266;48.798;44.756;2023-03-23T21:33:28;101633.84;;;10.59;55.25
75668;BME280;64266;48.798;44.756;2023-03-23T21:38:31;101621.72;;;10.44;55.21
75668;BME280;64266;48.798;44.756;2023-03-23T21:43:34;101631.31;;;10.45;54.89
75668;BME280;64266;48.798;44.756;2023-03-23T21:48:37;101642.94;;;10.44;55.33
75668;BME280;64266;48.798;44.756;2023-03-23T21:53:43;101633.38;;;10.49;55.47
75668;BME280;64266;48.798;44.756;2023-03-23T21:58:46;101630.13;;;10.47;55.75
75668;BME280;64266;48.798;44.756;2023-03-23T22:03:49;101642.38;;;10.48;55.84
75668;BME280;64266;48.798;44.756;2023-03-23T22:08:53;101629.25;;;10.40;56.03
75668;BME280;64266;48.798;44.756;2023-03-23T22:14:08;101631.88;;;10.33;56.59
75668;BME280;64266;48.798;44.756;2023-03-23T22:19:11;101636.31;;;10.26;56.39
75668;BME280;64266;48.798;44.756;2023-03-23T22:24:15;101629.34;;;10.25;56.43
75668;BME280;64266;48.798;44.756;2023-03-23T22:29:20;101632.22;;;10.24;56.60
75668;BME280;64266;48.798;44.756;2023-03-23T22:34:24;101624.28;;;10.24;56.74
75668;BME280;64266;48.798;44.756;2023-03-23T22:39:27;101616.06;;;10.19;56.17
75668;BME280;64266;48.798;44.756;2023-03-23T22:44:31;101600.47;;;10.09;56.24
75668;BME280;64266;48.798;44.756;2023-03-23T22:49:35;101608.03;;;10.12;57.06
75668;BME280;64266;48.798;44.756;2023-03-23T22:54:37;101617.09;;;10.18;56.62
75668;BME280;64266;48.798;44.756;2023-03-23T22:59:40;101602.72;;;10.12;56.81
75668;BME280;64266;48.798;44.756;2023-03-23T23:04:43;101613.63;;;10.17;56.92
75668;BME280;64266;48.798;44.756;2023-03-23T23:09:47;101605.38;;;10.12;56.93
75668;BME280;64266;48.798;44.756;2023-03-23T23:14:50;101616.34;;;10.03;57.56
75668;BME280;64266;48.798;44.756;2023-03-23T23:19:52;101588.28;;;9.87;57.11
75668;BME280;64266;48.798;44.756;2023-03-23T23:24:55;101607.84;;;9.86;57.22
75668;BME280;64266;48.798;44.756;2023-03-23T23:29:57;101602.31;;;9.81;57.84
75668;BME280;64266;48.798;44.756;2023-03-23T23:35:04;101596.19;;;9.80;57.09
75668;BME280;64266;48.798;44.756;2023-03-23T23:40:08;101604.19;;;9.87;57.34
75668;BME280;64266;48.798;44.756;2023-03-23T23:45:10;101583.56;;;9.82;57.50
75668;BME280;64266;48.798;44.756;2023-03-23T23:50:14;101584.31;;;9.76;57.20
75668;BME280;64266;48.798;44.756;2023-03-23T23:55:19;101586.41;;;9.81;57.46
